Glenham, NY (12527)

7:37 AM EDT on August 18, 2017 (GMT -0400)
Davis Street | | Change Station

Elev 180 ft 41.50 °N, 73.96 °W | Updated 30 seconds ago

Rain
Rain
73.1 °F
Feels Like 71 °F
N
3.0
Wind Variable Wind from South

Today
High -- | Low -- °F
--% Chance of Precip.
Yesterday
High -- | Low -- °F
Precip. -- in
Pressure 29.87 in
Visibility 3.0 miles
Clouds Mostly Cloudy 2700 ft
Mostly Cloudy 4700 ft
Overcast 6000 ft
Heat Index 71 °F
Dew Point 69 °F
Humidity 88%
Rainfall 0.00 in
Snow Depth Not available.
6:07 AM 7:50 PM
Waning Crescent, 14% visible
SPECI KPOU 181132Z 15004KT 3SM -RA BR BKN027 BKN047 OVC060 23/21 A2987 RMK AO2 RAB04 P0006 T02280211
Pressure 29.87 in
Visibility 3.0 miles
Clouds Mostly Cloudy 2700 ft
Mostly Cloudy 4700 ft
Overcast 6000 ft
Heat Index 71 °F
Dew Point 69 °F
Humidity 88%
Rainfall 0.00 in
Snow Depth Not available.
6:07 AM 7:50 PM
Waning Crescent, 14% visible
SPECI KPOU 181132Z 15004KT 3SM -RA BR BKN027 BKN047 OVC060 23/21 A2987 RMK AO2 RAB04 P0006 T02280211

Get Severe Weather Alerts

Thanks for signing up!

Be on the lookout for a verification email in your inbox.

You'll start receiving the daily forecast at 6 AM.

×

10-Day Weather Forecast

Almanac

Astronomy

Aug. 18, 2017 Rise Set
Actual Time
Civil Twilight
Nautical Twilight
Astronomical Twilight
Moon
Length of Visible Light
Length of Day
Tomorrow will be .
, % of the Moon is Illuminated

Today's Extremes

State Highs State Lows

Community

WunderPhotos

Category 6

Welcome to Category 6. This is the collective home for Weather Underground's featured writeups by Dr. Jeff Masters (right), Bob Henson (left), Chris Burt, and other regular contributors.

Nearby

Air Quality

  Air Quality AQ Index Pollutant
Not available.

Snow Depth

Station Depth Elevation

Earthquake Activity

City Distance Mag. Time & Date
Minimum magnitude displayed is 2.5.

Coastal Water Temperatures

Place Temperature

Stations

Nearby Weather Stations

Station Location Temp. Windchill Dew Point Humidity Wind Precip. Elev Updated Type
                   

Watches & Warnings

There are currently no watches in effect.